createdAt,value
2017-05-27T00:01:33.137Z,83.20
2017-05-27T00:03:59.944Z,83.60
2017-05-27T00:06:26.670Z,84.10
2017-05-27T00:08:53.371Z,85.20
2017-05-27T00:11:20.092Z,84.70
2017-05-27T00:13:46.806Z,84.70
2017-05-27T00:16:13.508Z,86.80
2017-05-27T00:18:40.235Z,85.30
2017-05-27T00:21:06.923Z,84.90
2017-05-27T00:23:33.614Z,84.60
2017-05-27T00:26:00.326Z,84.90
2017-05-27T00:28:27.048Z,83.80
2017-05-27T00:30:53.751Z,83.80
2017-05-27T00:33:20.443Z,85.50
2017-05-27T00:35:47.142Z,87.30
2017-05-27T00:38:13.868Z,87.20
2017-05-27T00:40:40.565Z,86.40
2017-05-27T00:43:07.257Z,88.60
2017-05-27T00:45:34.011Z,88.10
2017-05-27T00:48:00.703Z,87.20
2017-05-27T00:50:27.411Z,88.00
2017-05-27T00:52:54.108Z,87.20
2017-05-27T00:55:20.815Z,86.60
2017-05-27T00:57:47.523Z,87.90
2017-05-27T01:00:14.213Z,87.50
2017-05-27T01:02:40.902Z,88.40
2017-05-27T01:05:07.602Z,89.70
2017-05-27T01:07:34.295Z,90.00
2017-05-27T01:10:01.020Z,89.50
2017-05-27T01:12:27.726Z,88.80
2017-05-27T01:14:54.451Z,90.00
2017-05-27T01:17:21.200Z,89.30
2017-05-27T01:19:47.896Z,88.20
2017-05-27T01:22:14.854Z,87.70
2017-05-27T01:24:41.558Z,88.20
2017-05-27T01:27:08.248Z,87.30
2017-05-27T01:29:35.101Z,86.80
2017-05-27T01:32:01.884Z,87.50
2017-05-27T01:34:28.566Z,88.50
2017-05-27T01:36:55.283Z,88.00
2017-05-27T01:39:21.975Z,88.50
2017-05-27T01:41:48.674Z,89.00
2017-05-27T01:44:15.432Z,89.40
2017-05-27T01:46:42.132Z,89.80
2017-05-27T01:49:08.868Z,90.40
2017-05-27T01:51:35.563Z,90.80
2017-05-27T01:54:02.252Z,91.10
2017-05-27T01:56:28.962Z,90.70
2017-05-27T01:58:55.659Z,91.00
2017-05-27T02:01:22.361Z,91.10
2017-05-27T02:03:49.058Z,91.20
2017-05-27T02:06:15.759Z,90.90
2017-05-27T02:08:42.483Z,91.00
2017-05-27T02:11:09.176Z,90.80
2017-05-27T02:13:35.929Z,90.70
2017-05-27T02:16:02.631Z,90.90
2017-05-27T02:18:29.435Z,91.00
2017-05-27T02:20:56.158Z,91.10
2017-05-27T02:23:22.859Z,90.70
2017-05-27T02:25:49.560Z,90.70
2017-05-27T02:28:16.279Z,91.20
2017-05-27T02:30:42.975Z,91.20
2017-05-27T02:33:09.723Z,91.00
2017-05-27T02:35:36.451Z,91.20
2017-05-27T02:38:03.279Z,90.80
2017-05-27T02:40:29.984Z,90.40
2017-05-27T02:42:56.698Z,91.50
2017-05-27T02:45:23.392Z,90.50
2017-05-27T02:47:50.110Z,90.80
2017-05-27T02:50:16.803Z,91.50
2017-05-27T02:52:43.546Z,91.10
2017-05-27T02:55:10.263Z,91.50
2017-05-27T02:57:36.951Z,91.80
2017-05-27T03:00:03.645Z,91.70
2017-05-27T03:02:30.359Z,91.40
2017-05-27T03:04:57.083Z,91.60
2017-05-27T03:07:24.020Z,91.50
2017-05-27T03:09:50.736Z,91.60
2017-05-27T03:12:17.795Z,91.30
2017-05-27T03:14:44.487Z,91.70
2017-05-27T03:17:11.210Z,91.80
2017-05-27T03:19:37.905Z,92.10
2017-05-27T03:22:04.599Z,91.50
2017-05-27T03:24:31.323Z,91.50
2017-05-27T03:26:58.030Z,91.90
2017-05-27T03:29:24.780Z,91.90
2017-05-27T03:31:51.507Z,91.70
2017-05-27T03:34:18.195Z,91.90
2017-05-27T03:36:44.891Z,92.10
2017-05-27T03:39:11.596Z,91.50
2017-05-27T03:41:38.286Z,91.80
2017-05-27T03:44:04.984Z,92.10
2017-05-27T03:46:31.715Z,91.90
2017-05-27T03:48:58.416Z,92.10
2017-05-27T03:51:25.120Z,92.50
2017-05-27T03:53:51.848Z,92.30
2017-05-27T03:56:18.543Z,92.40
2017-05-27T03:58:45.231Z,92.50
2017-05-27T04:01:11.931Z,91.80
2017-05-27T04:03:38.642Z,90.70
2017-05-27T04:06:05.374Z,90.40
2017-05-27T04:08:32.080Z,90.10
2017-05-27T04:10:58.780Z,88.90
2017-05-27T04:13:25.502Z,87.20
2017-05-27T04:15:52.215Z,87.40
2017-05-27T04:18:18.919Z,87.40
2017-05-27T04:20:45.618Z,87.20
2017-05-27T04:23:12.303Z,86.50
2017-05-27T04:25:39.026Z,84.30
2017-05-27T04:28:05.719Z,83.60
2017-05-27T04:30:32.410Z,82.50
2017-05-27T04:32:59.113Z,81.60
2017-05-27T04:35:25.808Z,80.60
2017-05-27T04:37:52.532Z,79.20
2017-05-27T04:40:19.220Z,77.80
2017-05-27T04:42:45.907Z,76.40
2017-05-27T04:45:12.668Z,76.50
2017-05-27T04:47:39.380Z,75.40
2017-05-27T04:50:06.272Z,75.50
2017-05-27T04:52:32.982Z,75.80
2017-05-27T04:54:59.679Z,76.00
2017-05-27T04:57:26.376Z,75.40
2017-05-27T04:59:53.091Z,74.60
2017-05-27T05:02:19.784Z,74.60
2017-05-27T05:04:46.495Z,74.30
2017-05-27T05:07:13.279Z,73.10
2017-05-27T05:09:40.000Z,72.30
2017-05-27T05:12:06.722Z,69.50
2017-05-27T05:14:33.475Z,66.50
2017-05-27T05:17:00.171Z,65.30
2017-05-27T05:19:26.877Z,63.40
2017-05-27T05:21:53.623Z,64.00
2017-05-27T05:24:20.333Z,64.20
2017-05-27T05:26:47.047Z,64.60
2017-05-27T05:29:13.743Z,61.30
2017-05-27T05:31:40.447Z,62.00
2017-05-27T05:34:07.216Z,59.90
2017-05-27T05:36:33.935Z,58.00
2017-05-27T05:39:00.744Z,58.60
2017-05-27T05:41:27.497Z,57.90
2017-05-27T05:43:54.210Z,57.10
2017-05-27T05:46:20.936Z,56.60
2017-05-27T05:48:47.740Z,56.10
2017-05-27T05:51:14.156Z,56.10
2017-05-27T05:53:40.907Z,54.30
2017-05-27T05:56:07.627Z,54.50
2017-05-27T05:58:33.594Z,54.10
2017-05-27T06:01:00.308Z,53.10
2017-05-27T06:03:27.032Z,52.50
2017-05-27T06:05:53.745Z,51.80
2017-05-27T06:08:20.467Z,51.80
2017-05-27T06:10:47.187Z,51.80
2017-05-27T06:13:13.896Z,51.80
2017-05-27T06:15:40.609Z,51.30
2017-05-27T06:18:07.329Z,51.00
2017-05-27T06:20:34.071Z,50.60
2017-05-27T06:23:00.789Z,52.00
2017-05-27T06:25:27.508Z,52.30
2017-05-27T06:27:54.257Z,51.40
2017-05-27T06:30:20.554Z,51.30
2017-05-27T06:32:47.259Z,47.80
2017-05-27T06:35:13.260Z,47.80
2017-05-27T06:37:39.968Z,48.20
2017-05-27T06:40:05.961Z,48.10
2017-05-27T06:42:32.679Z,48.00
2017-05-27T06:44:59.383Z,46.60
2017-05-27T06:47:26.162Z,45.20
2017-05-27T06:49:52.898Z,46.20
2017-05-27T06:52:19.615Z,45.40
2017-05-27T06:54:46.328Z,45.60
2017-05-27T06:57:13.044Z,45.40
2017-05-27T06:59:39.785Z,45.80
2017-05-27T07:02:06.495Z,45.00
2017-05-27T07:04:33.227Z,44.70
2017-05-27T07:06:59.935Z,44.50
2017-05-27T07:09:26.628Z,42.70
2017-05-27T07:11:53.335Z,42.70
2017-05-27T07:14:20.079Z,42.90
2017-05-27T07:16:46.872Z,43.10
2017-05-27T07:19:13.587Z,43.30
2017-05-27T07:21:40.322Z,42.10
2017-05-27T07:24:07.042Z,42.90
2017-05-27T07:26:33.758Z,42.90
2017-05-27T07:29:00.498Z,42.70
2017-05-27T07:31:27.225Z,44.80
2017-05-27T07:33:53.955Z,44.60
2017-05-27T07:36:20.667Z,43.70
2017-05-27T07:38:46.636Z,43.60
2017-05-27T07:41:13.376Z,42.70
2017-05-27T07:43:40.109Z,42.50
2017-05-27T07:46:06.933Z,42.60
2017-05-27T07:48:33.692Z,42.20
2017-05-27T07:51:01.341Z,42.50
2017-05-27T07:53:28.100Z,42.10
2017-05-27T07:55:54.817Z,42.90
2017-05-27T07:58:21.535Z,41.90
2017-05-27T08:00:47.558Z,41.90
2017-05-27T08:03:14.301Z,41.20
2017-05-27T08:05:41.042Z,41.80
2017-05-27T08:08:07.748Z,40.90
2017-05-27T08:10:34.464Z,41.30
2017-05-27T08:13:01.171Z,40.30
2017-05-27T08:15:27.892Z,39.60
2017-05-27T08:17:54.649Z,39.50
2017-05-27T08:20:20.608Z,39.40
2017-05-27T08:22:47.327Z,40.80
2017-05-27T08:25:14.036Z,39.50
2017-05-27T08:27:40.719Z,39.20
2017-05-27T08:30:07.522Z,40.60
2017-05-27T08:32:40.419Z,40.80
2017-05-27T08:35:07.136Z,40.30
2017-05-27T08:37:33.856Z,40.50
2017-05-27T08:39:59.813Z,40.50
2017-05-27T08:42:26.554Z,40.60
2017-05-27T08:44:53.865Z,40.70
2017-05-27T08:47:20.574Z,41.10
2017-05-27T08:49:47.651Z,40.70
2017-05-27T08:52:14.355Z,41.50
2017-05-27T08:54:41.085Z,40.00
2017-05-27T08:57:07.783Z,39.70
2017-05-27T08:59:34.504Z,39.90
2017-05-27T09:02:00.513Z,39.80
2017-05-27T09:04:27.282Z,39.40
2017-05-27T09:06:54.017Z,40.20
2017-05-27T09:09:20.729Z,39.90
2017-05-27T09:11:47.706Z,39.70
2017-05-27T09:14:17.257Z,39.60
2017-05-27T09:16:44.168Z,38.90
2017-05-27T09:19:11.271Z,37.90
2017-05-27T09:21:37.970Z,38.30
2017-05-27T09:24:04.659Z,38.80
2017-05-27T09:26:31.367Z,38.30
2017-05-27T09:28:57.316Z,38.30
2017-05-27T09:31:24.035Z,38.40
2017-05-27T09:33:50.727Z,39.00
2017-05-27T09:36:17.427Z,38.70
2017-05-27T09:38:44.511Z,38.10
2017-05-27T09:41:11.191Z,37.20
2017-05-27T09:43:37.882Z,37.60
2017-05-27T09:46:04.663Z,38.70
2017-05-27T09:48:31.356Z,39.10
2017-05-27T09:50:58.102Z,38.30
2017-05-27T09:53:24.817Z,37.30
2017-05-27T09:55:51.513Z,37.80
2017-05-27T09:58:18.226Z,37.00
2017-05-27T10:00:44.935Z,38.40
2017-05-27T10:03:11.641Z,37.70
2017-05-27T10:05:38.334Z,38.10
2017-05-27T10:08:05.023Z,38.50
2017-05-27T10:10:31.719Z,40.10
2017-05-27T10:12:58.438Z,39.90
2017-05-27T10:15:25.123Z,40.00
2017-05-27T10:17:51.123Z,39.70
2017-05-27T10:20:17.822Z,41.30
2017-05-27T10:22:44.514Z,41.50
2017-05-27T10:25:11.239Z,40.40
2017-05-27T10:27:37.996Z,41.80
2017-05-27T10:30:04.717Z,42.20
2017-05-27T10:32:30.674Z,42.10
2017-05-27T10:34:57.369Z,42.30
2017-05-27T10:37:24.080Z,42.70
2017-05-27T10:39:50.785Z,40.30
2017-05-27T10:42:17.611Z,41.70
2017-05-27T10:44:44.355Z,42.90
2017-05-27T10:47:11.059Z,42.30
2017-05-27T10:49:37.780Z,41.00
2017-05-27T10:52:04.543Z,40.80
2017-05-27T10:54:31.244Z,41.80
2017-05-27T10:56:57.946Z,41.60
2017-05-27T10:59:24.690Z,40.20
2017-05-27T11:01:50.649Z,40.20
2017-05-27T11:04:17.336Z,40.80
2017-05-27T11:06:44.040Z,41.10
2017-05-27T11:09:10.766Z,40.50
2017-05-27T11:11:37.518Z,40.90
2017-05-27T11:14:04.224Z,39.70
2017-05-27T11:16:30.936Z,40.80
2017-05-27T11:18:57.675Z,39.70
2017-05-27T11:21:23.661Z,39.70
2017-05-27T11:23:50.391Z,39.60
2017-05-27T11:26:17.091Z,40.40
2017-05-27T11:28:43.079Z,40.40
2017-05-27T11:31:09.835Z,39.60
2017-05-27T11:33:36.607Z,40.20
2017-05-27T11:36:03.352Z,40.00
2017-05-27T11:38:30.081Z,39.80
2017-05-27T11:40:56.802Z,38.00
2017-05-27T11:43:23.543Z,38.70
2017-05-27T11:45:50.241Z,39.30
2017-05-27T11:48:16.980Z,39.30
2017-05-27T11:50:43.694Z,39.10
2017-05-27T11:53:10.387Z,39.70
2017-05-27T11:55:37.092Z,39.60
2017-05-27T11:58:03.852Z,39.60
2017-05-27T12:00:30.574Z,38.80
2017-05-27T12:02:57.264Z,39.50
2017-05-27T12:05:24.014Z,39.80
2017-05-27T12:07:50.706Z,39.70
2017-05-27T12:10:17.391Z,39.30
2017-05-27T12:12:44.124Z,38.70
2017-05-27T12:15:10.816Z,39.20
2017-05-27T12:17:37.522Z,38.90
2017-05-27T12:20:04.227Z,39.50
2017-05-27T12:22:30.935Z,39.70
2017-05-27T12:24:57.647Z,38.20
2017-05-27T12:27:24.330Z,39.40
2017-05-27T12:29:51.025Z,37.40
2017-05-27T12:32:17.748Z,38.70
2017-05-27T12:34:44.462Z,38.90
2017-05-27T12:37:11.171Z,40.10
2017-05-27T12:39:37.905Z,39.20
2017-05-27T12:42:04.663Z,38.70
2017-05-27T12:44:31.367Z,38.20
2017-05-27T12:46:58.083Z,38.90
2017-05-27T12:49:24.779Z,38.20
2017-05-27T12:51:51.495Z,39.30
2017-05-27T12:54:18.223Z,39.50
2017-05-27T12:56:44.969Z,39.40
2017-05-27T12:59:11.699Z,38.80
2017-05-27T13:01:38.442Z,38.90
2017-05-27T13:04:05.138Z,38.80
2017-05-27T13:06:31.847Z,39.30
2017-05-27T13:08:58.555Z,40.10
2017-05-27T13:11:25.260Z,39.70
2017-05-27T13:13:52.071Z,40.30
2017-05-27T13:16:18.826Z,39.60
2017-05-27T13:18:45.536Z,40.40
2017-05-27T13:21:11.506Z,40.40
2017-05-27T13:23:38.207Z,40.10
2017-05-27T13:26:04.919Z,39.90
2017-05-27T13:28:31.650Z,40.70
2017-05-27T13:30:58.367Z,40.70
2017-05-27T13:33:25.090Z,41.30
2017-05-27T13:35:51.819Z,40.40
2017-05-27T13:38:18.563Z,39.90
2017-05-27T13:40:44.532Z,39.90
2017-05-27T13:43:11.267Z,40.80
2017-05-27T13:45:37.963Z,41.30
2017-05-27T13:48:04.664Z,40.20
2017-05-27T13:50:31.404Z,40.60
2017-05-27T13:52:58.330Z,41.00
2017-05-27T13:55:25.045Z,41.10
2017-05-27T13:57:51.024Z,41.20
2017-05-27T14:00:17.772Z,41.60
2017-05-27T14:02:44.482Z,41.00
2017-05-27T14:05:11.298Z,40.80
2017-05-27T14:07:38.140Z,40.80
2017-05-27T14:10:04.835Z,40.30
2017-05-27T14:12:31.527Z,40.60
2017-05-27T14:14:57.483Z,40.50
2017-05-27T14:17:24.241Z,40.90
2017-05-27T14:19:50.931Z,40.50
2017-05-27T14:22:17.643Z,40.90
2017-05-27T14:24:44.364Z,40.30
2017-05-27T14:27:11.082Z,40.00
2017-05-27T14:29:37.782Z,40.20
2017-05-27T14:32:04.503Z,39.60
2017-05-27T14:34:30.455Z,39.60
2017-05-27T14:36:57.148Z,40.70
2017-05-27T14:39:23.861Z,40.50
2017-05-27T14:41:50.611Z,41.20
2017-05-27T14:44:17.322Z,40.90
2017-05-27T14:46:43.281Z,40.90
2017-05-27T14:49:09.251Z,40.80
2017-05-27T14:51:35.959Z,40.40
2017-05-27T14:54:02.668Z,40.50
2017-05-27T14:56:29.379Z,40.00
2017-05-27T14:58:55.500Z,40.00
2017-05-27T15:01:22.211Z,40.50
2017-05-27T15:03:48.891Z,40.20
2017-05-27T15:06:15.594Z,40.70
2017-05-27T15:08:42.287Z,40.70
2017-05-27T15:11:09.008Z,39.80
2017-05-27T15:13:35.691Z,40.00
2017-05-27T15:16:02.386Z,39.80
2017-05-27T15:18:29.080Z,39.60
2017-05-27T15:20:55.767Z,39.60
2017-05-27T15:23:22.706Z,40.30
2017-05-27T15:25:49.424Z,39.90
2017-05-27T15:28:16.121Z,39.60
2017-05-27T15:30:42.831Z,39.80
2017-05-27T15:33:09.542Z,40.10
2017-05-27T15:35:36.226Z,39.00
2017-05-27T15:38:02.912Z,39.10
2017-05-27T15:40:29.620Z,38.90
2017-05-27T15:42:56.340Z,39.20
2017-05-27T15:45:23.031Z,39.10
2017-05-27T15:47:49.753Z,39.00
2017-05-27T15:50:16.470Z,38.70
2017-05-27T15:52:43.159Z,38.90
2017-05-27T15:55:09.842Z,39.10
2017-05-27T15:57:36.538Z,39.10
2017-05-27T16:00:03.247Z,38.40
2017-05-27T16:02:29.951Z,38.60
2017-05-27T16:04:56.639Z,38.60
2017-05-27T16:07:23.329Z,39.10
2017-05-27T16:09:50.047Z,39.20
2017-05-27T16:12:16.727Z,38.90
2017-05-27T16:14:43.416Z,38.70
2017-05-27T16:17:10.116Z,39.10
2017-05-27T16:19:36.824Z,39.30
2017-05-27T16:22:03.532Z,38.80
2017-05-27T16:24:30.219Z,39.40
2017-05-27T16:26:56.181Z,39.30
2017-05-27T16:29:22.909Z,40.20
2017-05-27T16:31:49.598Z,39.90
2017-05-27T16:34:15.550Z,39.80
2017-05-27T16:36:42.251Z,40.50
2017-05-27T16:39:08.954Z,39.30
2017-05-27T16:41:35.644Z,39.50
2017-05-27T16:44:02.473Z,39.70
2017-05-27T16:46:29.191Z,40.10
2017-05-27T16:48:55.905Z,40.30
2017-05-27T16:51:22.611Z,39.80
2017-05-27T16:53:49.530Z,40.40
2017-05-27T16:56:16.294Z,40.20
2017-05-27T16:58:42.290Z,40.10
2017-05-27T17:01:09.253Z,40.30
2017-05-27T17:03:35.355Z,40.20
2017-05-27T17:06:02.142Z,40.50
2017-05-27T17:08:28.933Z,40.30
2017-05-27T17:10:55.001Z,40.30
2017-05-27T17:13:21.750Z,40.60
2017-05-27T17:15:47.754Z,40.60
2017-05-27T17:18:14.536Z,40.60
2017-05-27T17:20:40.567Z,40.60
2017-05-27T17:23:07.355Z,40.80
2017-05-27T17:25:35.690Z,40.90
2017-05-27T17:28:02.262Z,40.90
2017-05-27T17:30:29.500Z,41.20
2017-05-27T17:32:56.355Z,41.20
2017-05-27T17:35:22.305Z,41.10
2017-05-27T17:37:49.027Z,41.70
2017-05-27T17:40:15.710Z,41.90
2017-05-27T17:42:42.397Z,41.40
2017-05-27T17:45:09.087Z,41.60
2017-05-27T17:47:35.773Z,41.80
2017-05-27T17:50:02.503Z,42.20
2017-05-27T17:52:29.221Z,42.60
2017-05-27T17:54:55.912Z,42.80
2017-05-27T17:57:22.602Z,42.90
2017-05-27T17:59:49.283Z,43.10
2017-05-27T18:02:15.974Z,43.00
2017-05-27T18:04:42.658Z,43.00
2017-05-27T18:07:09.350Z,43.20
2017-05-27T18:09:36.031Z,43.40
2017-05-27T18:12:02.742Z,43.10
2017-05-27T18:14:29.418Z,43.30
2017-05-27T18:16:56.103Z,43.50
2017-05-27T18:19:22.798Z,43.70
2017-05-27T18:21:49.499Z,43.80
2017-05-27T18:24:15.507Z,43.80
2017-05-27T18:26:42.190Z,44.00
2017-05-27T18:29:08.910Z,44.10
2017-05-27T18:31:35.627Z,44.00
2017-05-27T18:34:02.346Z,44.40
2017-05-27T18:36:29.038Z,44.70
2017-05-27T18:38:55.740Z,44.70
2017-05-27T18:41:22.431Z,44.70
2017-05-27T18:43:49.158Z,44.90
2017-05-27T18:46:15.959Z,45.10
2017-05-27T18:48:42.733Z,45.20
2017-05-27T18:51:09.460Z,45.30
2017-05-27T18:53:36.154Z,45.30
2017-05-27T18:56:02.859Z,45.40
2017-05-27T18:58:29.551Z,45.40
2017-05-27T19:00:56.279Z,45.40
2017-05-27T19:03:22.988Z,45.70
2017-05-27T19:05:49.736Z,45.90
2017-05-27T19:08:16.439Z,46.10
2017-05-27T19:10:43.155Z,46.40
2017-05-27T19:13:09.858Z,46.30
2017-05-27T19:15:36.613Z,46.40
2017-05-27T19:18:03.422Z,46.40
2017-05-27T19:20:29.515Z,46.40
2017-05-27T19:22:55.466Z,46.60
2017-05-27T19:25:22.179Z,47.20
2017-05-27T19:27:48.890Z,47.80
2017-05-27T19:30:15.603Z,47.60
2017-05-27T19:32:41.550Z,47.60
2017-05-27T19:35:08.263Z,47.80
2017-05-27T19:37:35.061Z,48.00
2017-05-27T19:40:01.865Z,48.30
2017-05-27T19:42:28.556Z,48.50
2017-05-27T19:44:55.259Z,48.80
2017-05-27T19:47:21.957Z,49.00
2017-05-27T19:49:48.812Z,49.20
2017-05-27T19:52:15.658Z,49.50
2017-05-27T19:54:42.382Z,49.50
2017-05-27T19:57:09.079Z,49.80
2017-05-27T19:59:35.819Z,49.80
2017-05-27T20:02:02.527Z,50.20
2017-05-27T20:04:29.251Z,50.40
2017-05-27T20:06:55.950Z,50.50
2017-05-27T20:09:22.660Z,50.60
2017-05-27T20:11:49.379Z,50.80
2017-05-27T20:14:16.080Z,51.00
2017-05-27T20:16:42.783Z,51.00
2017-05-27T20:19:09.495Z,51.10
2017-05-27T20:21:36.187Z,51.20
2017-05-27T20:24:02.908Z,51.30
2017-05-27T20:26:29.600Z,51.50
2017-05-27T20:28:55.552Z,51.50
2017-05-27T20:31:21.516Z,51.70
2017-05-27T20:33:48.224Z,52.10
2017-05-27T20:36:14.973Z,52.10
2017-05-27T20:38:42.747Z,52.20
2017-05-27T20:41:09.540Z,52.30
2017-05-27T20:43:36.252Z,52.50
2017-05-27T20:46:02.972Z,52.70
2017-05-27T20:48:29.692Z,52.80
2017-05-27T20:50:56.395Z,53.00
2017-05-27T20:53:23.172Z,53.10
2017-05-27T20:55:49.998Z,53.30
2017-05-27T20:58:16.748Z,53.40
2017-05-27T21:00:43.480Z,53.50
2017-05-27T21:03:09.451Z,53.40
2017-05-27T21:05:36.162Z,53.80
2017-05-27T21:08:02.896Z,53.90
2017-05-27T21:10:28.866Z,53.90
2017-05-27T21:12:55.592Z,54.90
2017-05-27T21:15:22.307Z,54.70
2017-05-27T21:17:49.015Z,54.90
2017-05-27T21:20:15.891Z,55.10
2017-05-27T21:22:42.637Z,55.30
2017-05-27T21:25:09.342Z,55.60
2017-05-27T21:27:36.035Z,55.80
2017-05-27T21:30:02.800Z,56.10
2017-05-27T21:32:29.593Z,56.20
2017-05-27T21:34:56.373Z,56.40
2017-05-27T21:37:23.085Z,56.40
2017-05-27T21:39:49.787Z,56.50
2017-05-27T21:42:16.469Z,56.70
2017-05-27T21:44:43.180Z,57.50
2017-05-27T21:47:09.888Z,57.20
2017-05-27T21:49:36.627Z,57.50
2017-05-27T21:52:03.413Z,57.60
2017-05-27T21:54:30.136Z,57.80
2017-05-27T21:56:56.823Z,58.00
2017-05-27T21:59:23.923Z,58.10
2017-05-27T22:01:50.755Z,58.30
2017-05-27T22:04:17.487Z,58.30
2017-05-27T22:06:44.275Z,58.10
2017-05-27T22:09:11.012Z,58.30
2017-05-27T22:11:37.699Z,58.50
2017-05-27T22:14:04.424Z,58.50
2017-05-27T22:16:31.122Z,58.70
2017-05-27T22:18:57.807Z,58.80
2017-05-27T22:21:24.535Z,58.90
2017-05-27T22:23:51.372Z,59.20
2017-05-27T22:26:18.058Z,59.50
2017-05-27T22:28:44.746Z,59.80
2017-05-27T22:31:11.439Z,61.00
2017-05-27T22:33:38.183Z,60.40
2017-05-27T22:36:04.871Z,60.90
2017-05-27T22:38:31.551Z,60.90
2017-05-27T22:40:58.247Z,61.10
2017-05-27T22:43:25.172Z,61.00
2017-05-27T22:45:51.876Z,61.50
2017-05-27T22:48:18.567Z,62.00
2017-05-27T22:50:45.391Z,61.90
2017-05-27T22:53:12.078Z,62.20
2017-05-27T22:55:38.771Z,62.20
2017-05-27T22:58:05.585Z,62.10
2017-05-27T23:00:32.275Z,62.50
2017-05-27T23:02:58.974Z,62.30
2017-05-27T23:05:25.683Z,62.80
2017-05-27T23:07:52.380Z,62.90
2017-05-27T23:10:18.355Z,62.90
2017-05-27T23:12:45.254Z,63.40
2017-05-27T23:15:11.944Z,64.00
2017-05-27T23:17:38.631Z,63.90
2017-05-27T23:20:05.384Z,63.90
2017-05-27T23:22:32.099Z,65.00
2017-05-27T23:24:58.807Z,64.20
2017-05-27T23:27:25.506Z,64.20
2017-05-27T23:29:52.203Z,64.20
2017-05-27T23:32:18.891Z,64.50
2017-05-27T23:34:45.579Z,64.40
2017-05-27T23:37:12.271Z,64.40
2017-05-27T23:39:38.954Z,64.90
2017-05-27T23:42:05.939Z,64.10
2017-05-27T23:44:32.632Z,64.40
2017-05-27T23:46:59.349Z,64.20
2017-05-27T23:49:26.096Z,64.30
2017-05-27T23:51:52.791Z,64.30
2017-05-27T23:54:19.515Z,64.50
2017-05-27T23:56:46.242Z,64.50
2017-05-27T23:59:12.942Z,64.80
